createdAt,value
2022-11-16T00:00:45.380Z,99939.94
2022-11-16T00:03:47.936Z,99928.22
2022-11-16T00:06:50.046Z,99928.50
2022-11-16T00:09:52.354Z,99930.53
2022-11-16T00:12:54.285Z,99923.38
2022-11-16T00:15:57.706Z,99931.91
2022-11-16T00:19:00.705Z,99917.56
2022-11-16T00:22:03.330Z,99913.47
2022-11-16T00:25:05.567Z,99912.59
2022-11-16T00:28:07.768Z,99915.88
2022-11-16T00:31:10.091Z,99912.59
2022-11-16T00:34:12.808Z,99903.34
2022-11-16T00:37:14.902Z,99904.38
2022-11-16T00:40:17.210Z,99901.13
2022-11-16T00:43:19.254Z,99890.59
2022-11-16T00:46:21.449Z,99878.66
2022-11-16T00:49:23.827Z,99873.50
2022-11-16T00:52:26.029Z,99874.56
2022-11-16T00:55:28.009Z,99872.66
2022-11-16T00:58:31.054Z,99869.91
2022-11-16T01:01:34.361Z,99870.66
2022-11-16T01:04:37.259Z,99861.59
2022-11-16T01:07:40.704Z,99857.59
2022-11-16T01:10:43.322Z,99860.84
2022-11-16T01:13:45.450Z,99859.38
2022-11-16T01:16:49.384Z,99856.31
2022-11-16T01:19:51.334Z,99849.25
2022-11-16T01:22:53.838Z,99837.03
2022-11-16T01:25:56.651Z,99837.12
2022-11-16T01:28:59.630Z,99837.44
2022-11-16T01:32:02.945Z,99827.22
2022-11-16T01:35:07.036Z,99831.44
2022-11-16T01:38:09.185Z,99823.09
2022-11-16T01:41:15.525Z,99821.00
2022-11-16T01:44:31.335Z,99805.28
2022-11-16T01:47:34.419Z,99804.22
2022-11-16T01:50:37.311Z,99800.09
2022-11-16T01:53:40.460Z,99800.94
2022-11-16T01:56:43.760Z,99804.31
2022-11-16T01:59:47.706Z,99789.03
2022-11-16T02:02:50.254Z,99791.47
2022-11-16T02:06:02.768Z,99788.09
2022-11-16T02:09:42.882Z,99776.50
2022-11-16T02:13:12.372Z,99778.81
2022-11-16T02:16:22.725Z,99776.50
2022-11-16T02:19:33.433Z,99771.44
2022-11-16T02:22:53.812Z,99767.97
2022-11-16T02:26:11.331Z,99768.16
2022-11-16T02:29:34.898Z,99752.84
2022-11-16T02:32:44.296Z,99760.25
2022-11-16T02:35:55.080Z,99751.28
2022-11-16T02:39:00.646Z,99742.22
2022-11-16T02:42:04.175Z,99746.50
2022-11-16T02:45:08.736Z,99747.13
2022-11-16T02:48:14.164Z,99739.66
2022-11-16T02:51:17.079Z,99734.59
2022-11-16T02:54:20.947Z,99730.22
2022-11-16T02:57:28.798Z,99722.81
2022-11-16T03:00:51.966Z,99722.81
2022-11-16T03:03:58.905Z,99723.78
2022-11-16T03:07:03.802Z,99717.22
2022-11-16T03:10:06.561Z,99712.72
2022-11-16T03:13:12.295Z,99715.12
2022-11-16T03:16:17.308Z,99712.28
2022-11-16T03:19:22.447Z,99708.50
2022-11-16T03:22:31.265Z,99705.97
2022-11-16T03:25:38.740Z,99706.47
2022-11-16T03:28:49.759Z,99702.56
2022-11-16T03:31:54.514Z,99697.84
2022-11-16T03:35:00.182Z,99690.34
2022-11-16T03:38:03.742Z,99690.41
2022-11-16T03:41:07.710Z,99695.28
2022-11-16T03:44:12.203Z,99685.34
2022-11-16T03:47:14.446Z,99683.50
2022-11-16T03:50:16.746Z,99680.25
2022-11-16T03:53:18.960Z,99674.22
2022-11-16T03:56:21.969Z,99669.44
2022-11-16T03:59:24.211Z,99666.91
2022-11-16T04:02:26.546Z,99675.22
2022-11-16T04:05:47.838Z,99663.19
2022-11-16T04:09:08.250Z,99661.28
2022-11-16T04:12:30.856Z,99657.25
2022-11-16T04:15:51.663Z,99652.59
2022-11-16T04:19:12.586Z,99640.59
2022-11-16T04:22:36.552Z,99642.00
2022-11-16T04:25:40.382Z,99639.34
2022-11-16T04:28:48.085Z,99635.59
2022-11-16T04:32:09.770Z,99633.47
2022-11-16T04:35:30.899Z,99631.91
2022-11-16T04:38:33.669Z,99636.00
2022-11-16T04:41:54.733Z,99626.56
2022-11-16T04:45:16.134Z,99630.16
2022-11-16T04:48:19.324Z,99629.88
2022-11-16T04:51:22.069Z,99626.56
2022-11-16T04:54:24.114Z,99622.94
2022-11-16T04:57:26.351Z,99615.00
2022-11-16T05:00:29.422Z,99621.63
2022-11-16T05:03:31.708Z,99621.63
2022-11-16T05:06:33.611Z,99626.06
2022-11-16T05:09:36.346Z,99618.38
2022-11-16T05:12:38.374Z,99619.34
2022-11-16T05:15:40.959Z,99618.00
2022-11-16T05:18:43.105Z,99618.00
2022-11-16T05:21:46.717Z,99611.03
2022-11-16T05:24:48.660Z,99608.62
2022-11-16T05:27:50.916Z,99615.97
2022-11-16T05:30:52.953Z,99610.69
2022-11-16T05:33:55.221Z,99607.00
2022-11-16T05:36:57.329Z,99598.25
2022-11-16T05:39:59.793Z,99591.91
2022-11-16T05:43:02.013Z,99586.41
2022-11-16T05:46:05.120Z,99584.44
2022-11-16T05:49:07.944Z,99584.44
2022-11-16T05:52:10.695Z,99574.97
2022-11-16T05:55:13.523Z,99578.72
2022-11-16T05:58:16.356Z,99576.69
2022-11-16T06:01:18.389Z,99573.22
2022-11-16T06:04:28.101Z,99570.59
2022-11-16T06:07:30.496Z,99569.34
2022-11-16T06:10:33.416Z,99570.19
2022-11-16T06:13:35.561Z,99573.50
2022-11-16T06:16:37.864Z,99573.72
2022-11-16T06:19:40.957Z,99572.66
2022-11-16T06:22:43.480Z,99578.66
2022-11-16T06:25:45.699Z,99572.72
2022-11-16T06:28:48.279Z,99565.31
2022-11-16T06:31:50.181Z,99570.09
2022-11-16T06:34:52.506Z,99576.59
2022-11-16T06:37:55.510Z,99569.13
2022-11-16T06:40:59.060Z,99569.25
2022-11-16T06:44:01.425Z,99569.69
2022-11-16T06:47:04.747Z,99560.72
2022-11-16T06:50:08.250Z,99564.47
2022-11-16T06:53:10.772Z,99558.47
2022-11-16T06:56:14.652Z,99555.22
2022-11-16T06:59:17.282Z,99549.50
2022-11-16T07:02:22.743Z,99543.87
2022-11-16T07:05:25.097Z,99542.31
2022-11-16T07:08:28.583Z,99541.47
2022-11-16T07:11:31.409Z,99547.31
2022-11-16T07:14:33.428Z,99543.97
2022-11-16T07:17:36.798Z,99536.91
2022-11-16T07:20:38.961Z,99538.72
2022-11-16T07:23:41.636Z,99528.84
2022-11-16T07:26:44.365Z,99530.31
2022-11-16T07:29:47.656Z,99533.56
2022-11-16T07:32:56.700Z,99528.50
2022-11-16T07:36:00.674Z,99521.94
2022-11-16T07:39:02.749Z,99522.88
2022-11-16T07:42:11.324Z,99525.19
2022-11-16T07:45:14.403Z,99518.81
2022-11-16T07:48:17.775Z,99525.94
2022-11-16T07:51:22.152Z,99517.91
2022-11-16T07:54:27.305Z,99513.22
2022-11-16T07:57:29.786Z,99513.94
2022-11-16T08:00:33.372Z,99510.81
2022-11-16T08:03:39.181Z,99500.50
2022-11-16T08:06:41.711Z,99495.00
2022-11-16T08:09:44.049Z,99493.09
2022-11-16T08:12:46.719Z,99495.84
2022-11-16T08:15:49.495Z,99506.03
2022-11-16T08:18:51.716Z,99504.34
2022-11-16T08:21:54.066Z,99497.41
2022-11-16T08:24:56.093Z,99494.88
2022-11-16T08:27:58.543Z,99506.16
2022-11-16T08:31:00.827Z,99494.75
2022-11-16T08:34:03.746Z,99494.16
2022-11-16T08:37:06.638Z,99493.31
2022-11-16T08:40:10.178Z,99495.94
2022-11-16T08:43:12.341Z,99486.25
2022-11-16T08:46:14.866Z,99490.66
2022-11-16T08:49:18.174Z,99484.06
2022-11-16T08:52:20.692Z,99483.63
2022-11-16T08:55:24.717Z,99482.06
2022-11-16T08:58:26.877Z,99488.03
2022-11-16T09:01:30.553Z,99484.91
2022-11-16T09:04:36.863Z,99485.25
2022-11-16T09:07:39.910Z,99476.00
2022-11-16T09:10:42.107Z,99483.22
2022-11-16T09:13:44.960Z,99470.16
2022-11-16T09:16:47.172Z,99469.53
2022-11-16T09:19:49.188Z,99473.72
2022-11-16T09:22:51.391Z,99473.25
2022-11-16T09:25:54.521Z,99477.81
2022-11-16T09:28:58.255Z,99468.66
2022-11-16T09:32:00.425Z,99469.88
2022-11-16T09:35:02.597Z,99460.28
2022-11-16T09:38:06.483Z,99454.41
2022-11-16T09:41:09.924Z,99458.44
2022-11-16T09:44:24.220Z,99451.13
2022-11-16T09:47:35.641Z,99452.56
2022-11-16T09:50:48.438Z,99445.50
2022-11-16T09:53:50.656Z,99450.56
2022-11-16T09:56:54.369Z,99451.53
2022-11-16T10:00:03.599Z,99448.50
2022-11-16T10:03:15.146Z,99439.03
2022-11-16T10:06:21.250Z,99428.56
2022-11-16T10:09:23.282Z,99420.34
2022-11-16T10:12:35.151Z,99416.75
2022-11-16T10:15:43.488Z,99409.53
2022-11-16T10:19:05.091Z,99415.19
2022-11-16T10:22:21.569Z,99411.81
2022-11-16T10:25:26.593Z,99407.97
2022-11-16T10:28:37.936Z,99404.03
2022-11-16T10:31:51.464Z,99396.00
2022-11-16T10:35:11.835Z,99384.53
2022-11-16T10:38:16.174Z,99390.78
2022-11-16T10:41:37.400Z,99384.47
2022-11-16T10:44:43.782Z,99385.50
2022-11-16T10:47:50.095Z,99370.44
2022-11-16T10:50:52.781Z,99379.34
2022-11-16T10:53:55.965Z,99368.97
2022-11-16T10:57:02.801Z,99366.59
2022-11-16T11:00:07.572Z,99356.84
2022-11-16T11:03:13.797Z,99352.47
2022-11-16T11:06:15.687Z,99343.00
2022-11-16T11:09:21.495Z,99343.00
2022-11-16T11:12:39.236Z,99345.63
2022-11-16T11:15:42.442Z,99334.81
2022-11-16T11:18:44.375Z,99325.97
2022-11-16T11:21:46.994Z,99320.50
2022-11-16T11:24:48.962Z,99327.00
2022-11-16T11:27:53.222Z,99321.34
2022-11-16T11:30:57.655Z,99315.28
2022-11-16T11:34:04.192Z,99309.28
2022-11-16T11:37:06.719Z,99312.19
2022-11-16T11:40:27.830Z,99312.44
2022-11-16T11:43:29.835Z,99306.06
2022-11-16T11:47:10.994Z,99307.78
2022-11-16T11:50:02.956Z,99296.84
2022-11-16T11:53:16.043Z,99294.91
2022-11-16T11:56:18.626Z,99288.31
2022-11-16T11:59:23.752Z,99285.81
2022-11-16T12:02:31.880Z,99292.19
2022-11-16T12:05:45.703Z,99290.34
2022-11-16T12:08:50.328Z,99289.09
2022-11-16T12:12:16.087Z,99281.69
2022-11-16T12:15:56.592Z,99281.00
2022-11-16T12:19:12.944Z,99280.41
2022-11-16T12:22:26.869Z,99275.78
2022-11-16T12:25:37.577Z,99270.88
2022-11-16T12:29:04.027Z,99267.53
2022-11-16T12:32:06.278Z,99269.78
2022-11-16T12:35:17.230Z,99266.94
2022-11-16T12:38:28.538Z,99275.56
2022-11-16T12:41:49.241Z,99269.59
2022-11-16T12:44:51.349Z,99265.28
2022-11-16T12:48:03.952Z,99265.41
2022-11-16T12:51:06.129Z,99256.06
2022-11-16T12:54:35.894Z,99257.09
2022-11-16T12:57:38.035Z,99252.56
2022-11-16T13:00:49.178Z,99255.47
2022-11-16T13:03:57.317Z,99260.31
2022-11-16T13:07:11.312Z,99257.66
2022-11-16T13:10:27.215Z,99255.72
2022-11-16T13:13:36.285Z,99249.03
2022-11-16T13:16:39.546Z,99246.78
2022-11-16T13:19:44.151Z,99248.78
2022-11-16T13:22:51.532Z,99249.56
2022-11-16T13:26:10.568Z,99251.94
2022-11-16T13:29:15.879Z,99249.03
2022-11-16T13:32:23.130Z,99251.28
2022-11-16T13:35:25.707Z,99247.09
2022-11-16T13:38:46.209Z,99251.47
2022-11-16T13:42:04.853Z,99249.81
2022-11-16T13:45:08.867Z,99242.84
2022-11-16T13:48:22.193Z,99240.19
2022-11-16T13:51:24.714Z,99236.03
2022-11-16T13:54:45.108Z,99241.50
2022-11-16T13:57:50.797Z,99236.66
2022-11-16T14:00:58.861Z,99235.81
2022-11-16T14:04:20.260Z,99237.44
2022-11-16T14:07:28.920Z,99231.06
2022-11-16T14:10:37.187Z,99223.13
2022-11-16T14:13:40.577Z,99226.63
2022-11-16T14:16:43.065Z,99220.38
2022-11-16T14:19:49.073Z,99219.41
2022-11-16T14:22:56.105Z,99218.00
2022-11-16T14:26:04.051Z,99212.56
2022-11-16T14:29:25.203Z,99214.13
2022-11-16T14:32:30.792Z,99215.66
2022-11-16T14:35:38.809Z,99200.91
2022-11-16T14:38:44.223Z,99209.28
2022-11-16T14:41:46.563Z,99212.69
2022-11-16T14:44:49.423Z,99208.31
2022-11-16T14:47:53.273Z,99210.00
2022-11-16T14:51:15.047Z,99206.00
2022-11-16T14:54:29.787Z,99204.28
2022-11-16T14:57:31.759Z,99201.03
2022-11-16T15:00:34.309Z,99200.22
2022-11-16T15:03:45.551Z,99194.09
2022-11-16T15:06:53.359Z,99189.53
2022-11-16T15:09:56.574Z,99190.56
2022-11-16T15:12:58.830Z,99185.34
2022-11-16T15:16:30.065Z,99190.81
2022-11-16T15:19:32.230Z,99184.25
2022-11-16T15:22:39.672Z,99184.94
2022-11-16T15:26:02.299Z,99182.31
2022-11-16T15:29:04.198Z,99186.63
2022-11-16T15:32:06.864Z,99175.81
2022-11-16T15:35:15.367Z,99180.81
2022-11-16T15:38:17.489Z,99181.47
2022-11-16T15:41:19.440Z,99181.47
2022-11-16T15:44:22.579Z,99172.59
2022-11-16T15:47:24.960Z,99171.50
2022-11-16T15:50:28.049Z,99169.50
2022-11-16T15:53:40.204Z,99178.25
2022-11-16T15:56:42.587Z,99176.31
2022-11-16T15:59:48.057Z,99175.63
2022-11-16T16:02:51.173Z,99177.87
2022-11-16T16:05:54.526Z,99169.94
2022-11-16T16:09:06.137Z,99167.31
2022-11-16T16:12:37.674Z,99167.44
2022-11-16T16:15:40.233Z,99164.28
2022-11-16T16:18:43.195Z,99166.78
2022-11-16T16:21:46.008Z,99159.66
2022-11-16T16:24:48.242Z,99166.59
2022-11-16T16:27:50.148Z,99171.88
2022-11-16T16:30:52.329Z,99166.72
2022-11-16T16:33:55.565Z,99161.75
2022-11-16T16:36:57.699Z,99174.00
2022-11-16T16:40:00.067Z,99162.91
2022-11-16T16:43:02.234Z,99160.16
2022-11-16T16:46:04.512Z,99158.28
2022-11-16T16:49:07.941Z,99154.53
2022-11-16T16:52:11.639Z,99159.97
2022-11-16T16:55:13.776Z,99154.22
2022-11-16T16:58:15.980Z,99160.72
2022-11-16T17:01:18.178Z,99154.75
2022-11-16T17:04:20.099Z,99151.06
2022-11-16T17:07:22.315Z,99161.44
2022-11-16T17:10:24.350Z,99158.41
2022-11-16T17:13:26.481Z,99143.53
2022-11-16T17:16:28.424Z,99150.81
2022-11-16T17:19:30.806Z,99144.19
2022-11-16T17:22:33.453Z,99141.41
2022-11-16T17:25:37.010Z,99150.13
2022-11-16T17:28:38.853Z,99145.28
2022-11-16T17:31:43.606Z,99146.25
2022-11-16T17:34:45.487Z,99142.38
2022-11-16T17:37:47.697Z,99133.31
2022-11-16T17:40:49.588Z,99138.47
2022-11-16T17:43:52.842Z,99131.50
2022-11-16T17:46:54.827Z,99134.72
2022-11-16T17:49:57.002Z,99140.13
2022-11-16T17:52:58.907Z,99138.13
2022-11-16T17:56:01.903Z,99139.16
2022-11-16T17:59:03.796Z,99130.41
2022-11-16T18:02:05.965Z,99134.47
2022-11-16T18:05:08.321Z,99134.72
2022-11-16T18:08:10.307Z,99128.47
2022-11-16T18:11:19.442Z,99127.31
2022-11-16T18:14:21.332Z,99130.47
2022-11-16T18:17:23.501Z,99124.28
2022-11-16T18:20:27.566Z,99128.09
2022-11-16T18:23:29.757Z,99127.19
2022-11-16T18:26:31.655Z,99123.78
2022-11-16T18:29:35.250Z,99115.59
2022-11-16T18:32:37.234Z,99122.50
2022-11-16T18:35:39.355Z,99120.56
2022-11-16T18:38:41.281Z,99125.37
2022-11-16T18:41:48.794Z,99116.91
2022-11-16T18:44:55.209Z,99119.78
2022-11-16T18:47:57.373Z,99114.25
2022-11-16T18:51:03.098Z,99114.84
2022-11-16T18:54:05.677Z,99119.16
2022-11-16T18:57:07.526Z,99115.53
2022-11-16T19:00:10.010Z,99119.06
2022-11-16T19:03:11.942Z,99116.94
2022-11-16T19:06:16.993Z,99111.50
2022-11-16T19:09:18.844Z,99107.41
2022-11-16T19:12:20.974Z,99114.12
2022-11-16T19:15:23.529Z,99110.06
2022-11-16T19:18:25.969Z,99105.94
2022-11-16T19:21:28.278Z,99107.75
2022-11-16T19:24:30.428Z,99113.88
2022-11-16T19:27:32.557Z,99116.37
2022-11-16T19:30:34.929Z,99101.81
2022-11-16T19:33:37.363Z,99104.84
2022-11-16T19:36:39.885Z,99102.03
2022-11-16T19:39:41.752Z,99098.88
2022-11-16T19:42:43.953Z,99096.94
2022-11-16T19:45:45.829Z,99097.12
2022-11-16T19:48:49.324Z,99099.50
2022-11-16T19:51:51.591Z,99102.53
2022-11-16T19:54:53.887Z,99095.34
2022-11-16T19:57:55.845Z,99094.50
2022-11-16T20:01:05.135Z,99091.28
2022-11-16T20:04:07.480Z,99085.56
2022-11-16T20:07:10.904Z,99094.37
2022-11-16T20:10:13.093Z,99096.31
2022-11-16T20:13:14.996Z,99095.47
2022-11-16T20:16:18.373Z,99101.72
2022-11-16T20:19:20.864Z,99104.91
2022-11-16T20:22:23.071Z,99103.69
2022-11-16T20:25:24.970Z,99108.31
2022-11-16T20:28:27.128Z,99099.78
2022-11-16T20:31:30.398Z,99107.69
2022-11-16T20:34:32.542Z,99109.63
2022-11-16T20:37:34.424Z,99104.34
2022-11-16T20:40:36.621Z,99084.47
2022-11-16T20:43:39.333Z,99087.09
2022-11-16T20:46:43.814Z,99087.09
2022-11-16T20:49:45.691Z,99089.34
2022-11-16T20:52:52.523Z,99087.72
2022-11-16T20:55:57.157Z,99085.22
2022-11-16T20:58:59.512Z,99082.41
2022-11-16T21:02:01.435Z,99084.47
2022-11-16T21:05:03.726Z,99097.78
2022-11-16T21:08:05.669Z,99085.16
2022-11-16T21:11:21.584Z,99088.78
2022-11-16T21:14:23.454Z,99078.53
2022-11-16T21:17:25.600Z,99084.91
2022-11-16T21:20:28.652Z,99083.50
2022-11-16T21:23:32.102Z,99087.47
2022-11-16T21:26:34.467Z,99074.00
2022-11-16T21:29:36.594Z,99061.50
2022-11-16T21:32:38.428Z,99060.06
2022-11-16T21:35:40.579Z,99061.66
2022-11-16T21:38:42.758Z,99065.19
2022-11-16T21:41:44.958Z,99066.62
2022-11-16T21:44:46.886Z,99061.78
2022-11-16T21:47:50.088Z,99046.59
2022-11-16T21:51:18.549Z,99039.94
2022-11-16T21:54:20.676Z,99039.00
2022-11-16T21:57:22.864Z,99037.56
2022-11-16T22:00:25.260Z,99026.19
2022-11-16T22:03:28.436Z,99023.28
2022-11-16T22:06:49.042Z,99028.81
2022-11-16T22:09:51.231Z,99034.63
2022-11-16T22:12:53.115Z,99029.09
2022-11-16T22:15:55.301Z,99028.13
2022-11-16T22:18:57.183Z,99021.91
2022-11-16T22:21:59.922Z,99016.06
2022-11-16T22:25:01.914Z,99030.81
2022-11-16T22:28:20.206Z,99056.37
2022-11-16T22:31:22.999Z,99068.53
2022-11-16T22:34:25.141Z,99060.38
2022-11-16T22:37:27.014Z,99059.00
2022-11-16T22:40:29.174Z,99052.19
2022-11-16T22:43:31.585Z,99041.06
2022-11-16T22:46:33.776Z,99050.81
2022-11-16T22:49:35.676Z,99062.56
2022-11-16T22:52:37.802Z,99058.31
2022-11-16T22:55:39.757Z,99046.91
2022-11-16T22:58:42.187Z,99046.47
2022-11-16T23:01:44.062Z,99051.16
2022-11-16T23:04:46.263Z,99054.13
2022-11-16T23:07:48.179Z,99047.34
2022-11-16T23:11:22.691Z,99045.75
2022-11-16T23:14:43.140Z,99046.47
2022-11-16T23:17:45.641Z,99043.00
2022-11-16T23:21:06.045Z,99032.28
2022-11-16T23:24:30.424Z,99026.09
2022-11-16T23:27:52.564Z,99027.72
2022-11-16T23:30:54.730Z,99038.03
2022-11-16T23:33:56.651Z,99033.63
2022-11-16T23:37:02.433Z,99033.31
2022-11-16T23:40:04.478Z,99039.56
2022-11-16T23:43:26.017Z,99032.78
2022-11-16T23:46:28.635Z,99048.19
2022-11-16T23:49:30.805Z,99045.22
2022-11-16T23:52:32.656Z,99036.59
2022-11-16T23:55:36.184Z,99034.09
2022-11-16T23:58:38.064Z,99034.22
